sensor_id;sensor_type;location;lat;lon;timestamp;pressure;altitude;pressure_sealevel;temperature;humidity
44349;BME280;30068;50.986;4.564;2023-02-16T00:00:44;102524.06;;;18.00;56.51
44349;BME280;30068;50.986;4.564;2023-02-16T00:03:13;102531.44;;;17.98;56.47
44349;BME280;30068;50.986;4.564;2023-02-16T00:05:39;102530.88;;;17.94;56.57
44349;BME280;30068;50.986;4.564;2023-02-16T00:08:05;102536.28;;;17.94;56.66
44349;BME280;30068;50.986;4.564;2023-02-16T00:10:31;102526.03;;;17.98;56.68
44349;BME280;30068;50.986;4.564;2023-02-16T00:12:57;102529.34;;;17.81;57.01
44349;BME280;30068;50.986;4.564;2023-02-16T00:15:40;102527.56;;;17.70;57.46
44349;BME280;30068;50.986;4.564;2023-02-16T00:18:12;102533.38;;;17.86;56.90
44349;BME280;30068;50.986;4.564;2023-02-16T00:20:38;102534.44;;;17.74;57.24
44349;BME280;30068;50.986;4.564;2023-02-16T00:23:03;102535.09;;;17.55;58.15
44349;BME280;30068;50.986;4.564;2023-02-16T00:25:28;102530.53;;;17.67;57.59
44349;BME280;30068;50.986;4.564;2023-02-16T00:27:54;102528.09;;;17.64;57.63
44349;BME280;30068;50.986;4.564;2023-02-16T00:30:20;102529.03;;;17.74;57.17
44349;BME280;30068;50.986;4.564;2023-02-16T00:32:45;102528.94;;;17.64;57.50
44349;BME280;30068;50.986;4.564;2023-02-16T00:35:14;102514.47;;;17.65;57.39
44349;BME280;30068;50.986;4.564;2023-02-16T00:37:39;102523.25;;;17.67;57.28
44349;BME280;30068;50.986;4.564;2023-02-16T00:40:05;102518.47;;;17.71;57.30
44349;BME280;30068;50.986;4.564;2023-02-16T00:42:30;102521.38;;;17.47;58.02
44349;BME280;30068;50.986;4.564;2023-02-16T00:44:57;102512.09;;;17.40;58.28
44349;BME280;30068;50.986;4.564;2023-02-16T00:49:52;102514.06;;;17.38;58.21
44349;BME280;30068;50.986;4.564;2023-02-16T00:52:37;102506.19;;;17.46;57.79
44349;BME280;30068;50.986;4.564;2023-02-16T00:55:07;102507.72;;;17.28;58.61
44349;BME280;30068;50.986;4.564;2023-02-16T00:57:34;102512.25;;;17.27;58.59
44349;BME280;30068;50.986;4.564;2023-02-16T01:02:30;102505.31;;;17.25;58.87
44349;BME280;30068;50.986;4.564;2023-02-16T01:04:55;102490.97;;;17.45;57.87
44349;BME280;30068;50.986;4.564;2023-02-16T01:07:20;102494.44;;;17.36;58.34
44349;BME280;30068;50.986;4.564;2023-02-16T01:10:04;102496.34;;;17.24;58.64
44349;BME280;30068;50.986;4.564;2023-02-16T01:12:49;102505.53;;;17.22;58.73
44349;BME280;30068;50.986;4.564;2023-02-16T01:15:14;102504.34;;;17.15;59.06
44349;BME280;30068;50.986;4.564;2023-02-16T01:17:42;102503.25;;;17.17;58.74
44349;BME280;30068;50.986;4.564;2023-02-16T01:20:14;102492.19;;;17.20;58.71
44349;BME280;30068;50.986;4.564;2023-02-16T01:22:40;102492.69;;;17.14;59.05
44349;BME280;30068;50.986;4.564;2023-02-16T01:25:05;102485.91;;;17.20;58.65
44349;BME280;30068;50.986;4.564;2023-02-16T01:27:30;102481.66;;;17.17;58.81
44349;BME280;30068;50.986;4.564;2023-02-16T01:29:56;102477.00;;;17.19;58.62
44349;BME280;30068;50.986;4.564;2023-02-16T01:32:22;102467.22;;;17.07;59.31
44349;BME280;30068;50.986;4.564;2023-02-16T01:34:47;102472.16;;;17.02;59.40
44349;BME280;30068;50.986;4.564;2023-02-16T01:37:15;102472.44;;;17.20;59.01
44349;BME280;30068;50.986;4.564;2023-02-16T01:39:40;102475.94;;;17.11;58.57
44349;BME280;30068;50.986;4.564;2023-02-16T01:42:10;102468.72;;;17.00;59.36
44349;BME280;30068;50.986;4.564;2023-02-16T01:44:40;102466.50;;;17.05;59.01
44349;BME280;30068;50.986;4.564;2023-02-16T01:49:48;102471.91;;;17.05;58.84
44349;BME280;30068;50.986;4.564;2023-02-16T01:52:20;102470.78;;;17.08;58.71
44349;BME280;30068;50.986;4.564;2023-02-16T01:54:51;102458.53;;;17.04;58.87
44349;BME280;30068;50.986;4.564;2023-02-16T01:57:20;102464.13;;;16.91;59.54
44349;BME280;30068;50.986;4.564;2023-02-16T02:02:13;102456.59;;;16.94;59.29
44349;BME280;30068;50.986;4.564;2023-02-16T02:07:41;102451.44;;;17.03;58.72
44349;BME280;30068;50.986;4.564;2023-02-16T02:10:09;102444.72;;;16.97;58.92
44349;BME280;30068;50.986;4.564;2023-02-16T02:15:03;102432.63;;;16.91;59.03
44349;BME280;30068;50.986;4.564;2023-02-16T02:17:29;102436.16;;;16.92;59.59
44349;BME280;30068;50.986;4.564;2023-02-16T02:25:53;102440.22;;;16.86;59.30
44349;BME280;30068;50.986;4.564;2023-02-16T02:28:14;102420.09;;;16.90;59.44
44349;BME280;30068;50.986;4.564;2023-02-16T02:30:48;102420.13;;;16.79;59.51
44349;BME280;30068;50.986;4.564;2023-02-16T02:36:14;102408.25;;;16.82;59.45
44349;BME280;30068;50.986;4.564;2023-02-16T02:44:36;102399.81;;;16.75;59.85
44349;BME280;30068;50.986;4.564;2023-02-16T02:47:02;102403.97;;;16.79;59.64
44349;BME280;30068;50.986;4.564;2023-02-16T02:49:28;102399.69;;;16.77;59.48
44349;BME280;30068;50.986;4.564;2023-02-16T02:51:53;102412.56;;;16.73;59.89
44349;BME280;30068;50.986;4.564;2023-02-16T02:54:20;102408.63;;;16.77;59.84
44349;BME280;30068;50.986;4.564;2023-02-16T02:59:51;102398.84;;;16.65;60.10
44349;BME280;30068;50.986;4.564;2023-02-16T03:02:37;102405.50;;;16.61;60.29
44349;BME280;30068;50.986;4.564;2023-02-16T03:05:04;102404.88;;;16.69;60.06
44349;BME280;30068;50.986;4.564;2023-02-16T03:07:31;102404.25;;;16.65;60.05
44349;BME280;30068;50.986;4.564;2023-02-16T03:10:20;102404.97;;;16.78;59.90
44349;BME280;30068;50.986;4.564;2023-02-16T03:13:07;102400.72;;;16.65;59.96
44349;BME280;30068;50.986;4.564;2023-02-16T03:15:35;102396.56;;;16.61;60.26
44349;BME280;30068;50.986;4.564;2023-02-16T03:18:02;102394.97;;;16.58;60.09
44349;BME280;30068;50.986;4.564;2023-02-16T03:20:47;102393.94;;;16.59;60.47
44349;BME280;30068;50.986;4.564;2023-02-16T03:23:32;102386.88;;;16.58;60.73
44349;BME280;30068;50.986;4.564;2023-02-16T03:26:16;102371.19;;;16.52;60.52
44349;BME280;30068;50.986;4.564;2023-02-16T03:29:01;102374.38;;;16.57;60.37
44349;BME280;30068;50.986;4.564;2023-02-16T03:31:43;102379.03;;;16.55;60.52
44349;BME280;30068;50.986;4.564;2023-02-16T03:34:08;102388.59;;;16.48;60.78
44349;BME280;30068;50.986;4.564;2023-02-16T03:36:36;102388.34;;;16.51;60.72
44349;BME280;30068;50.986;4.564;2023-02-16T03:39:02;102389.34;;;16.50;60.29
44349;BME280;30068;50.986;4.564;2023-02-16T03:41:32;102388.81;;;16.56;60.40
44349;BME280;30068;50.986;4.564;2023-02-16T03:43:57;102396.44;;;16.51;60.89
44349;BME280;30068;50.986;4.564;2023-02-16T03:46:23;102392.03;;;16.50;60.53
44349;BME280;30068;50.986;4.564;2023-02-16T03:48:48;102392.75;;;16.52;60.32
44349;BME280;30068;50.986;4.564;2023-02-16T03:51:13;102384.31;;;16.45;60.63
44349;BME280;30068;50.986;4.564;2023-02-16T03:53:38;102389.34;;;16.50;60.88
44349;BME280;30068;50.986;4.564;2023-02-16T03:56:04;102389.00;;;16.43;60.76
44349;BME280;30068;50.986;4.564;2023-02-16T03:58:29;102392.03;;;16.39;61.02
44349;BME280;30068;50.986;4.564;2023-02-16T04:00:54;102384.09;;;16.37;61.18
44349;BME280;30068;50.986;4.564;2023-02-16T04:03:20;102380.56;;;16.37;60.85
44349;BME280;30068;50.986;4.564;2023-02-16T04:05:45;102380.41;;;16.38;61.15
44349;BME280;30068;50.986;4.564;2023-02-16T04:08:10;102388.75;;;16.35;60.77
44349;BME280;30068;50.986;4.564;2023-02-16T04:10:36;102399.41;;;16.37;61.19
44349;BME280;30068;50.986;4.564;2023-02-16T04:13:01;102387.63;;;16.38;60.95
44349;BME280;30068;50.986;4.564;2023-02-16T04:15:27;102379.06;;;16.44;60.69
44349;BME280;30068;50.986;4.564;2023-02-16T04:17:53;102375.88;;;16.39;61.17
44349;BME280;30068;50.986;4.564;2023-02-16T04:20:19;102383.25;;;16.37;60.83
44349;BME280;30068;50.986;4.564;2023-02-16T04:22:45;102390.59;;;16.35;60.89
44349;BME280;30068;50.986;4.564;2023-02-16T04:25:10;102394.72;;;16.39;60.98
44349;BME280;30068;50.986;4.564;2023-02-16T04:27:36;102371.97;;;16.32;61.13
44349;BME280;30068;50.986;4.564;2023-02-16T04:30:02;102379.81;;;16.35;61.01
44349;BME280;30068;50.986;4.564;2023-02-16T04:32:28;102378.97;;;16.34;61.46
44349;BME280;30068;50.986;4.564;2023-02-16T04:34:53;102380.06;;;16.32;61.21
44349;BME280;30068;50.986;4.564;2023-02-16T04:37:19;102373.81;;;16.31;61.34
44349;BME280;30068;50.986;4.564;2023-02-16T04:39:44;102381.66;;;16.34;61.22
44349;BME280;30068;50.986;4.564;2023-02-16T04:42:10;102384.34;;;16.34;60.75
44349;BME280;30068;50.986;4.564;2023-02-16T04:44:35;102401.09;;;16.60;60.05
44349;BME280;30068;50.986;4.564;2023-02-16T04:47:00;102405.38;;;16.63;59.54
44349;BME280;30068;50.986;4.564;2023-02-16T04:49:25;102410.13;;;16.59;59.80
44349;BME280;30068;50.986;4.564;2023-02-16T04:51:50;102402.28;;;16.67;59.51
44349;BME280;30068;50.986;4.564;2023-02-16T04:54:16;102403.03;;;16.69;59.58
44349;BME280;30068;50.986;4.564;2023-02-16T04:56:45;102388.91;;;16.77;59.90
44349;BME280;30068;50.986;4.564;2023-02-16T04:59:10;102391.59;;;16.77;59.64
44349;BME280;30068;50.986;4.564;2023-02-16T05:01:36;102384.84;;;16.82;59.17
44349;BME280;30068;50.986;4.564;2023-02-16T05:04:01;102382.59;;;16.87;59.21
44349;BME280;30068;50.986;4.564;2023-02-16T05:06:26;102376.88;;;16.81;59.63
44349;BME280;30068;50.986;4.564;2023-02-16T05:08:51;102378.41;;;16.94;59.44
44349;BME280;30068;50.986;4.564;2023-02-16T05:11:17;102386.94;;;16.99;59.14
44349;BME280;30068;50.986;4.564;2023-02-16T05:14:00;102379.25;;;16.95;59.19
44349;BME280;30068;50.986;4.564;2023-02-16T05:16:44;102387.63;;;16.92;59.29
44349;BME280;30068;50.986;4.564;2023-02-16T05:19:10;102364.59;;;16.88;59.80
44349;BME280;30068;50.986;4.564;2023-02-16T05:21:35;102365.44;;;16.88;60.04
44349;BME280;30068;50.986;4.564;2023-02-16T05:24:05;102356.44;;;16.99;59.24
44349;BME280;30068;50.986;4.564;2023-02-16T05:26:31;102359.00;;;17.01;59.21
44349;BME280;30068;50.986;4.564;2023-02-16T05:28:57;102367.94;;;17.01;59.25
44349;BME280;30068;50.986;4.564;2023-02-16T05:31:22;102377.44;;;16.95;59.88
44349;BME280;30068;50.986;4.564;2023-02-16T05:33:48;102369.34;;;16.95;59.74
44349;BME280;30068;50.986;4.564;2023-02-16T05:36:13;102371.06;;;16.96;59.95
44349;BME280;30068;50.986;4.564;2023-02-16T05:38:38;102374.22;;;17.02;59.64
44349;BME280;30068;50.986;4.564;2023-02-16T05:41:04;102362.84;;;17.19;59.03
44349;BME280;30068;50.986;4.564;2023-02-16T05:43:29;102353.09;;;17.07;59.12
44349;BME280;30068;50.986;4.564;2023-02-16T05:45:54;102356.91;;;17.04;59.69
44349;BME280;30068;50.986;4.564;2023-02-16T05:48:19;102357.78;;;17.05;59.83
44349;BME280;30068;50.986;4.564;2023-02-16T05:50:44;102362.03;;;17.07;59.79
44349;BME280;30068;50.986;4.564;2023-02-16T05:53:10;102358.47;;;17.07;59.70
44349;BME280;30068;50.986;4.564;2023-02-16T05:55:35;102371.25;;;17.05;60.10
44349;BME280;30068;50.986;4.564;2023-02-16T05:58:00;102366.84;;;17.24;59.23
44349;BME280;30068;50.986;4.564;2023-02-16T06:00:25;102375.53;;;17.28;58.88
44349;BME280;30068;50.986;4.564;2023-02-16T06:02:51;102381.13;;;17.15;59.21
44349;BME280;30068;50.986;4.564;2023-02-16T06:05:16;102383.94;;;17.14;59.30
44349;BME280;30068;50.986;4.564;2023-02-16T06:07:41;102379.28;;;17.16;59.63
44349;BME280;30068;50.986;4.564;2023-02-16T06:10:06;102378.56;;;17.14;59.67
44349;BME280;30068;50.986;4.564;2023-02-16T06:12:32;102387.38;;;17.16;59.83
44349;BME280;30068;50.986;4.564;2023-02-16T06:14:58;102384.69;;;17.16;59.72
44349;BME280;30068;50.986;4.564;2023-02-16T06:17:24;102389.94;;;17.17;59.70
44349;BME280;30068;50.986;4.564;2023-02-16T06:19:49;102396.53;;;17.24;59.53
44349;BME280;30068;50.986;4.564;2023-02-16T06:22:14;102397.31;;;17.36;58.52
44349;BME280;30068;50.986;4.564;2023-02-16T06:24:39;102401.97;;;17.34;58.64
44349;BME280;30068;50.986;4.564;2023-02-16T06:27:04;102392.00;;;17.25;59.03
44349;BME280;30068;50.986;4.564;2023-02-16T06:29:30;102390.53;;;17.21;59.59
44349;BME280;30068;50.986;4.564;2023-02-16T06:31:56;102396.41;;;17.26;59.46
44349;BME280;30068;50.986;4.564;2023-02-16T06:34:21;102402.47;;;17.18;59.71
44349;BME280;30068;50.986;4.564;2023-02-16T06:36:46;102404.16;;;17.19;59.73
44349;BME280;30068;50.986;4.564;2023-02-16T06:39:11;102407.56;;;17.21;59.84
44349;BME280;30068;50.986;4.564;2023-02-16T06:41:36;102402.78;;;17.25;59.70
44349;BME280;30068;50.986;4.564;2023-02-16T06:44:08;102392.66;;;17.38;58.85
44349;BME280;30068;50.986;4.564;2023-02-16T06:46:34;102387.94;;;17.40;58.76
44349;BME280;30068;50.986;4.564;2023-02-16T06:48:59;102385.34;;;17.29;59.01
44349;BME280;30068;50.986;4.564;2023-02-16T06:51:24;102389.75;;;17.30;59.30
44349;BME280;30068;50.986;4.564;2023-02-16T06:53:50;102392.69;;;17.27;59.61
44349;BME280;30068;50.986;4.564;2023-02-16T06:56:15;102394.41;;;17.28;59.58
44349;BME280;30068;50.986;4.564;2023-02-16T06:58:40;102398.25;;;17.25;59.65
44349;BME280;30068;50.986;4.564;2023-02-16T07:01:05;102394.69;;;17.25;59.79
44349;BME280;30068;50.986;4.564;2023-02-16T07:03:31;102403.63;;;17.25;59.81
44349;BME280;30068;50.986;4.564;2023-02-16T07:05:56;102402.06;;;17.23;59.88
44349;BME280;30068;50.986;4.564;2023-02-16T07:08:21;102395.00;;;17.11;60.18
44349;BME280;30068;50.986;4.564;2023-02-16T07:10:47;102395.53;;;17.05;60.52
44349;BME280;30068;50.986;4.564;2023-02-16T07:13:12;102402.78;;;17.04;60.67
44349;BME280;30068;50.986;4.564;2023-02-16T07:15:38;102416.63;;;16.99;60.69
44349;BME280;30068;50.986;4.564;2023-02-16T07:18:03;102426.19;;;17.04;60.61
44349;BME280;30068;50.986;4.564;2023-02-16T07:20:28;102427.69;;;16.96;61.14
44349;BME280;30068;50.986;4.564;2023-02-16T07:22:54;102428.03;;;17.03;60.82
44349;BME280;30068;50.986;4.564;2023-02-16T07:25:19;102433.81;;;16.98;60.78
44349;BME280;30068;50.986;4.564;2023-02-16T07:27:44;102431.59;;;16.92;61.18
44349;BME280;30068;50.986;4.564;2023-02-16T07:30:10;102421.44;;;16.96;61.05
44349;BME280;30068;50.986;4.564;2023-02-16T07:32:35;102428.91;;;16.92;61.20
44349;BME280;30068;50.986;4.564;2023-02-16T07:35:01;102430.38;;;16.96;60.93
44349;BME280;30068;50.986;4.564;2023-02-16T07:37:26;102434.63;;;16.99;60.69
44349;BME280;30068;50.986;4.564;2023-02-16T07:39:51;102434.28;;;16.92;60.83
44349;BME280;30068;50.986;4.564;2023-02-16T07:42:17;102436.75;;;16.95;60.75
44349;BME280;30068;50.986;4.564;2023-02-16T07:44:42;102428.72;;;16.84;61.07
44349;BME280;30068;50.986;4.564;2023-02-16T07:47:07;102441.41;;;16.93;60.91
44349;BME280;30068;50.986;4.564;2023-02-16T07:49:33;102440.34;;;16.85;61.19
44349;BME280;30068;50.986;4.564;2023-02-16T07:51:58;102431.41;;;16.84;61.19
44349;BME280;30068;50.986;4.564;2023-02-16T07:54:23;102439.16;;;16.78;61.35
44349;BME280;30068;50.986;4.564;2023-02-16T07:56:48;102438.75;;;16.82;61.06
44349;BME280;30068;50.986;4.564;2023-02-16T07:59:14;102437.03;;;16.81;61.13
44349;BME280;30068;50.986;4.564;2023-02-16T08:01:39;102431.06;;;16.78;61.36
44349;BME280;30068;50.986;4.564;2023-02-16T08:04:05;102435.59;;;16.77;61.36
44349;BME280;30068;50.986;4.564;2023-02-16T08:06:32;102436.06;;;16.82;61.13
44349;BME280;30068;50.986;4.564;2023-02-16T08:08:58;102431.69;;;16.70;61.72
44349;BME280;30068;50.986;4.564;2023-02-16T08:11:23;102430.06;;;16.79;61.25
44349;BME280;30068;50.986;4.564;2023-02-16T08:13:49;102436.81;;;16.73;61.25
44349;BME280;30068;50.986;4.564;2023-02-16T08:16:16;102442.94;;;16.75;61.29
44349;BME280;30068;50.986;4.564;2023-02-16T08:18:42;102439.78;;;16.70;61.46
44349;BME280;30068;50.986;4.564;2023-02-16T08:21:11;102439.66;;;16.72;61.49
44349;BME280;30068;50.986;4.564;2023-02-16T08:23:46;102438.06;;;16.69;61.40
44349;BME280;30068;50.986;4.564;2023-02-16T08:26:12;102434.28;;;16.72;61.40
44349;BME280;30068;50.986;4.564;2023-02-16T08:28:38;102446.16;;;16.69;61.44
44349;BME280;30068;50.986;4.564;2023-02-16T08:31:10;102446.63;;;16.74;61.20
44349;BME280;30068;50.986;4.564;2023-02-16T08:33:35;102442.13;;;16.64;62.00
44349;BME280;30068;50.986;4.564;2023-02-16T08:36:02;102446.78;;;16.62;61.77
44349;BME280;30068;50.986;4.564;2023-02-16T08:38:28;102451.56;;;16.58;61.96
44349;BME280;30068;50.986;4.564;2023-02-16T08:40:53;102456.78;;;16.59;61.84
44349;BME280;30068;50.986;4.564;2023-02-16T08:43:19;102459.63;;;16.58;61.61
44349;BME280;30068;50.986;4.564;2023-02-16T08:45:45;102465.75;;;16.60;61.75
44349;BME280;30068;50.986;4.564;2023-02-16T08:48:11;102468.81;;;16.55;61.74
44349;BME280;30068;50.986;4.564;2023-02-16T08:50:36;102471.91;;;16.51;61.71
44349;BME280;30068;50.986;4.564;2023-02-16T08:53:02;102467.94;;;16.55;61.46
44349;BME280;30068;50.986;4.564;2023-02-16T08:55:27;102468.47;;;16.49;61.55
44349;BME280;30068;50.986;4.564;2023-02-16T08:57:52;102475.22;;;16.43;61.66
44349;BME280;30068;50.986;4.564;2023-02-16T09:00:18;102469.66;;;16.56;61.07
44349;BME280;30068;50.986;4.564;2023-02-16T09:02:58;102471.28;;;16.47;61.39
44349;BME280;30068;50.986;4.564;2023-02-16T09:05:24;102463.56;;;16.43;61.36
44349;BME280;30068;50.986;4.564;2023-02-16T09:07:49;102467.25;;;16.42;61.69
44349;BME280;30068;50.986;4.564;2023-02-16T09:10:16;102467.25;;;16.42;61.42
44349;BME280;30068;50.986;4.564;2023-02-16T09:12:42;102466.25;;;16.43;61.80
44349;BME280;30068;50.986;4.564;2023-02-16T09:15:07;102474.34;;;16.43;61.64
44349;BME280;30068;50.986;4.564;2023-02-16T09:17:33;102477.78;;;16.34;61.90
44349;BME280;30068;50.986;4.564;2023-02-16T09:19:58;102472.63;;;16.42;61.32
44349;BME280;30068;50.986;4.564;2023-02-16T09:22:23;102467.47;;;16.39;61.60
44349;BME280;30068;50.986;4.564;2023-02-16T09:24:48;102460.88;;;16.32;62.01
44349;BME280;30068;50.986;4.564;2023-02-16T09:27:14;102465.03;;;16.36;61.74
44349;BME280;30068;50.986;4.564;2023-02-16T09:29:39;102463.81;;;16.29;61.81
44349;BME280;30068;50.986;4.564;2023-02-16T09:32:04;102467.75;;;16.36;61.34
44349;BME280;30068;50.986;4.564;2023-02-16T09:34:30;102456.47;;;16.31;61.98
44349;BME280;30068;50.986;4.564;2023-02-16T09:36:55;102455.84;;;16.27;61.73
44349;BME280;30068;50.986;4.564;2023-02-16T09:39:22;102459.91;;;16.22;62.04
44349;BME280;30068;50.986;4.564;2023-02-16T09:47:08;102470.94;;;16.30;62.11
44349;BME280;30068;50.986;4.564;2023-02-16T09:49:41;102482.19;;;16.24;62.18
44349;BME280;30068;50.986;4.564;2023-02-16T09:54:47;102484.25;;;16.20;62.46
44349;BME280;30068;50.986;4.564;2023-02-16T10:00:00;102483.66;;;16.16;62.19
44349;BME280;30068;50.986;4.564;2023-02-16T10:02:39;102471.88;;;16.17;62.17
44349;BME280;30068;50.986;4.564;2023-02-16T10:07:40;102470.06;;;16.18;62.50
44349;BME280;30068;50.986;4.564;2023-02-16T10:10:09;102467.38;;;16.18;62.51
44349;BME280;30068;50.986;4.564;2023-02-16T10:12:39;102469.31;;;16.27;62.25
44349;BME280;30068;50.986;4.564;2023-02-16T10:15:12;102468.97;;;16.20;62.36
44349;BME280;30068;50.986;4.564;2023-02-16T10:17:45;102478.03;;;16.19;62.57
44349;BME280;30068;50.986;4.564;2023-02-16T10:25:15;102453.31;;;16.14;62.49
44349;BME280;30068;50.986;4.564;2023-02-16T10:27:44;102440.69;;;16.04;62.78
44349;BME280;30068;50.986;4.564;2023-02-16T10:30:12;102443.00;;;16.19;62.32
44349;BME280;30068;50.986;4.564;2023-02-16T10:32:39;102441.91;;;16.11;62.77
44349;BME280;30068;50.986;4.564;2023-02-16T10:38:09;102441.53;;;16.04;62.94
44349;BME280;30068;50.986;4.564;2023-02-16T10:42:57;102459.41;;;16.05;62.87
44349;BME280;30068;50.986;4.564;2023-02-16T10:47:53;102477.72;;;15.08;59.73
44349;BME280;30068;50.986;4.564;2023-02-16T10:50:22;102481.63;;;14.31;62.68
44349;BME280;30068;50.986;4.564;2023-02-16T10:52:50;102465.16;;;14.85;62.28
44349;BME280;30068;50.986;4.564;2023-02-16T10:55:16;102468.47;;;15.12;61.49
44349;BME280;30068;50.986;4.564;2023-02-16T10:57:41;102455.97;;;15.35;60.93
44349;BME280;30068;50.986;4.564;2023-02-16T11:00:14;102456.84;;;15.47;60.84
44349;BME280;30068;50.986;4.564;2023-02-16T11:02:43;102458.56;;;15.48;60.96
44349;BME280;30068;50.986;4.564;2023-02-16T11:07:52;102436.91;;;15.49;61.45
44349;BME280;30068;50.986;4.564;2023-02-16T11:10:18;102437.47;;;15.54;61.46
44349;BME280;30068;50.986;4.564;2023-02-16T11:12:44;102440.03;;;15.56;61.35
44349;BME280;30068;50.986;4.564;2023-02-16T11:17:57;102437.22;;;15.57;62.23
44349;BME280;30068;50.986;4.564;2023-02-16T11:20:31;102422.41;;;15.63;61.91
44349;BME280;30068;50.986;4.564;2023-02-16T11:23:16;102413.00;;;15.57;61.94
44349;BME280;30068;50.986;4.564;2023-02-16T11:25:59;102406.16;;;15.64;62.33
44349;BME280;30068;50.986;4.564;2023-02-16T11:28:34;102411.66;;;15.63;62.23
44349;BME280;30068;50.986;4.564;2023-02-16T11:31:02;102421.44;;;15.64;62.36
44349;BME280;30068;50.986;4.564;2023-02-16T11:33:28;102416.91;;;15.64;62.25
44349;BME280;30068;50.986;4.564;2023-02-16T11:35:54;102408.13;;;15.73;61.92
44349;BME280;30068;50.986;4.564;2023-02-16T11:38:29;102417.28;;;15.71;62.04
44349;BME280;30068;50.986;4.564;2023-02-16T11:40:56;102407.00;;;15.65;62.27
44349;BME280;30068;50.986;4.564;2023-02-16T11:43:22;102401.41;;;15.68;62.37
44349;BME280;30068;50.986;4.564;2023-02-16T11:46:10;102396.88;;;15.68;62.41
44349;BME280;30068;50.986;4.564;2023-02-16T11:48:38;102399.69;;;15.67;62.28
44349;BME280;30068;50.986;4.564;2023-02-16T11:51:05;102392.84;;;15.74;61.82
44349;BME280;30068;50.986;4.564;2023-02-16T11:53:32;102392.84;;;15.74;62.17
44349;BME280;30068;50.986;4.564;2023-02-16T12:01:32;102390.38;;;15.93;61.63
44349;BME280;30068;50.986;4.564;2023-02-16T12:38:19;102358.66;;;16.73;60.15
44349;BME280;30068;50.986;4.564;2023-02-16T12:43:36;102343.88;;;16.45;59.35
44349;BME280;30068;50.986;4.564;2023-02-16T12:51:07;102325.00;;;16.88;59.67
44349;BME280;30068;50.986;4.564;2023-02-16T12:53:43;102321.38;;;16.99;59.10
44349;BME280;30068;50.986;4.564;2023-02-16T12:56:15;102332.53;;;17.06;58.87
44349;BME280;30068;50.986;4.564;2023-02-16T12:58:43;102315.06;;;17.10;59.00
44349;BME280;30068;50.986;4.564;2023-02-16T13:03:42;102316.34;;;17.06;59.64
44349;BME280;30068;50.986;4.564;2023-02-16T13:08:47;102326.38;;;17.24;58.79
44349;BME280;30068;50.986;4.564;2023-02-16T13:13:40;102323.47;;;17.37;58.85
44349;BME280;30068;50.986;4.564;2023-02-16T13:18:42;102322.16;;;17.31;59.32
44349;BME280;30068;50.986;4.564;2023-02-16T13:24:00;102311.06;;;17.25;59.55
44349;BME280;30068;50.986;4.564;2023-02-16T13:32:01;102295.22;;;17.41;59.26
44349;BME280;30068;50.986;4.564;2023-02-16T13:42:01;102282.44;;;17.43;59.08
44349;BME280;30068;50.986;4.564;2023-02-16T13:44:34;102281.72;;;17.41;59.10
44349;BME280;30068;50.986;4.564;2023-02-16T13:47:01;102277.91;;;17.44;59.16
44349;BME280;30068;50.986;4.564;2023-02-16T13:51:56;102265.53;;;17.41;59.03
44349;BME280;30068;50.986;4.564;2023-02-16T13:54:35;102264.56;;;17.42;59.14
44349;BME280;30068;50.986;4.564;2023-02-16T13:57:02;102252.91;;;17.42;59.08
44349;BME280;30068;50.986;4.564;2023-02-16T14:01:54;102261.41;;;17.37;59.32
44349;BME280;30068;50.986;4.564;2023-02-16T14:06:45;102255.84;;;17.29;59.34
44349;BME280;30068;50.986;4.564;2023-02-16T14:14:29;102228.97;;;17.27;59.22
44349;BME280;30068;50.986;4.564;2023-02-16T14:19:39;102247.09;;;17.16;59.78
44349;BME280;30068;50.986;4.564;2023-02-16T14:22:14;102247.09;;;17.16;59.76
44349;BME280;30068;50.986;4.564;2023-02-16T14:24:41;102236.31;;;17.16;59.63
44349;BME280;30068;50.986;4.564;2023-02-16T14:27:09;102233.19;;;17.11;59.79
44349;BME280;30068;50.986;4.564;2023-02-16T14:29:52;102227.06;;;17.09;59.78
44349;BME280;30068;50.986;4.564;2023-02-16T14:32:26;102227.91;;;17.09;59.86
44349;BME280;30068;50.986;4.564;2023-02-16T14:34:56;102228.91;;;17.08;59.89
44349;BME280;30068;50.986;4.564;2023-02-16T14:39:52;102226.63;;;17.04;59.52
44349;BME280;30068;50.986;4.564;2023-02-16T14:42:29;102233.78;;;16.93;59.68
44349;BME280;30068;50.986;4.564;2023-02-16T14:50:40;102227.53;;;16.93;59.77
44349;BME280;30068;50.986;4.564;2023-02-16T14:56:00;102214.88;;;16.84;60.28
44349;BME280;30068;50.986;4.564;2023-02-16T15:01:10;102204.22;;;16.82;60.04
44349;BME280;30068;50.986;4.564;2023-02-16T15:03:40;102212.16;;;17.05;59.62
44349;BME280;30068;50.986;4.564;2023-02-16T15:06:05;102209.50;;;16.93;60.24
44349;BME280;30068;50.986;4.564;2023-02-16T15:08:35;102199.69;;;16.83;60.71
44349;BME280;30068;50.986;4.564;2023-02-16T15:13:35;102198.63;;;16.74;60.50
44349;BME280;30068;50.986;4.564;2023-02-16T15:16:02;102207.69;;;16.73;60.58
44349;BME280;30068;50.986;4.564;2023-02-16T15:18:48;102209.69;;;16.71;60.47
44349;BME280;30068;50.986;4.564;2023-02-16T15:21:32;102219.13;;;16.86;55.78
44349;BME280;30068;50.986;4.564;2023-02-16T15:23:58;102218.28;;;16.12;57.28
44349;BME280;30068;50.986;4.564;2023-02-16T15:26:25;102221.63;;;16.26;57.73
44349;BME280;30068;50.986;4.564;2023-02-16T15:28:52;102212.78;;;16.35;57.77
44349;BME280;30068;50.986;4.564;2023-02-16T15:31:18;102208.59;;;16.42;57.66
44349;BME280;30068;50.986;4.564;2023-02-16T15:33:59;102212.03;;;16.44;57.62
44349;BME280;30068;50.986;4.564;2023-02-16T15:36:32;102203.94;;;16.44;57.52
44349;BME280;30068;50.986;4.564;2023-02-16T15:38:59;102210.31;;;16.43;57.90
44349;BME280;30068;50.986;4.564;2023-02-16T15:43:54;102213.47;;;16.48;58.53
44349;BME280;30068;50.986;4.564;2023-02-16T15:48:48;102217.38;;;16.76;58.18